Northville, MI (48167)

5:29 PM EST on March 06, 2015 (GMT -0500)
Lexington Commons | Change Station
CLOSE
Current Station
Personal Weather Station
Location: Northville, MI
Elevation: 930 ft
Nearby Weather Stations

Elev 930 ft 42.43 °N, 83.49 °W | Updated 3 seconds ago

Partly Cloudy
Partly Cloudy
21.6 °F
Feels Like 10 °F
N
10.7
Wind Variable Wind from SSW
Gusts 15.2 mph

Today
High -- | Low -- °F
--% Chance of Precip.
Yesterday
High -- | Low -- °F
Precip. -- in
7:01 AM 6:29 PM
Full, 99% visible
Pressure 30.32 in
Visibility 10.0 miles
Clouds Scattered Clouds 10000 ft
Windchill 10 °F
Dew Point 4 °F
Humidity 47%
Rainfall in
Snow Depth Not available.
UV 1 out of 12
Pollen .50 out of 12
Air Quality Not available.
Flu Activity Not available.
METAR KYIP 062153Z AUTO 21016KT 10SM SCT100 M05/M13 A3028 RMK AO2 PK WND 21026/2133 SLP267 T10501133 TSNO

More Conditions Fewer Conditions

Pressure 30.32 in
Visibility 10.0 miles
Clouds Scattered Clouds 10000 ft
Windchill 10 °F
Dew Point 4 °F
Humidity 47%
Rainfall in
Snow Depth Not available.
UV 1 out of 12
Pollen .50 out of 12
Air Quality Not available.
Flu Activity Not available.
METAR KYIP 062153Z AUTO 21016KT 10SM SCT100 M05/M13 A3028 RMK AO2 PK WND 21026/2133 SLP267 T10501133 TSNO

More Conditions Fewer Conditions

10-Day Weather Forecast

Almanac

Astronomy

Mar. 06, 2015 Rise Set
Actual Time
Civil Twilight
Nautical Twilight
Astronomical Twilight
Moon
Length of Visible Light
Length of Day
Tomorrow will be .
, % of the Moon is Illuminated

Today's Extremes

State Highs State Lows

Community

WunderPhotos

Upload Photos

1,803,420 photos uploaded!

WunderBlogs® & News

Nearby

Air Quality

  Air Quality AQ Index Pollutant
Not available.

Snow Depth

Station Depth Elevation

Earthquake Activity

City Distance Mag. Time & Date
Minimum magnitude displayed is 2.5.

Coastal Water Temperatures

Place Temperature

Nearby Weather Stations